createdAt,value
2023-02-28T07:18:56.987Z,32.08
2023-02-28T07:21:26.143Z,28.37
2023-02-28T07:23:52.942Z,27.85
2023-02-28T07:26:23.313Z,25.15
2023-02-28T07:28:50.469Z,22.90
2023-02-28T07:31:19.570Z,24.92
2023-02-28T07:33:49.032Z,23.83
2023-02-28T07:36:18.119Z,22.33
2023-02-28T07:38:48.609Z,21.35
2023-02-28T07:41:23.554Z,22.30
2023-02-28T07:43:52.329Z,21.38
2023-02-28T07:46:22.391Z,19.83
2023-02-28T07:48:53.866Z,19.45
2023-02-28T07:51:23.748Z,19.02
2023-02-28T07:53:50.591Z,19.27
2023-02-28T07:56:19.895Z,18.73
2023-02-28T07:58:49.106Z,18.40
2023-02-28T08:01:15.840Z,17.63
2023-02-28T08:03:45.743Z,18.25
2023-02-28T08:06:20.267Z,18.80
2023-02-28T08:08:48.494Z,17.73
2023-02-28T08:11:15.264Z,17.35
2023-02-28T08:13:45.203Z,17.38
2023-02-28T08:16:15.337Z,19.65
2023-02-28T08:18:42.371Z,12.07
2023-02-28T08:21:09.962Z,17.00
2023-02-28T08:23:37.151Z,17.45
2023-02-28T08:26:06.434Z,16.20
2023-02-28T08:28:33.423Z,15.35
2023-02-28T08:31:00.224Z,15.75
2023-02-28T08:33:27.703Z,16.80
2023-02-28T08:35:57.258Z,15.57
2023-02-28T08:38:24.566Z,15.20
2023-02-28T08:40:51.559Z,15.80
2023-02-28T08:43:18.584Z,14.65
2023-02-28T08:45:47.700Z,14.98
2023-02-28T08:48:14.709Z,15.18
2023-02-28T08:50:41.810Z,15.02
2023-02-28T08:53:11.258Z,15.10
2023-02-28T08:55:37.956Z,15.15
2023-02-28T08:58:04.903Z,13.73
2023-02-28T09:00:31.832Z,14.30
2023-02-28T09:03:03.221Z,14.60
2023-02-28T09:05:31.156Z,14.68
2023-02-28T09:07:58.230Z,14.23
2023-02-28T09:10:27.035Z,13.65
2023-02-28T09:12:54.214Z,14.25
2023-02-28T09:15:23.174Z,14.02
2023-02-28T09:17:50.027Z,14.23
2023-02-28T09:20:17.863Z,27.20
2023-02-28T09:22:44.689Z,22.35
2023-02-28T09:25:11.629Z,15.63
2023-02-28T09:27:42.279Z,15.50
2023-02-28T09:30:09.556Z,19.65
2023-02-28T09:32:40.859Z,14.80
2023-02-28T09:35:07.983Z,14.40
2023-02-28T09:37:36.835Z,14.40
2023-02-28T09:40:04.874Z,14.00
2023-02-28T09:42:33.260Z,14.52
2023-02-28T09:45:00.102Z,14.30
2023-02-28T09:47:34.224Z,13.95
2023-02-28T09:50:14.898Z,15.95
2023-02-28T09:52:41.658Z,13.67
2023-02-28T09:55:41.538Z,13.35
2023-02-28T09:58:23.525Z,13.55
2023-02-28T10:00:56.963Z,12.90
2023-02-28T10:03:58.373Z,12.85
2023-02-28T10:06:29.685Z,14.00
2023-02-28T10:08:59.746Z,13.77
2023-02-28T10:11:29.341Z,13.23
2023-02-28T10:14:03.601Z,13.85
2023-02-28T10:16:37.564Z,14.02
2023-02-28T10:19:10.069Z,14.20
2023-02-28T10:21:41.247Z,14.57
2023-02-28T10:26:52.389Z,14.80
2023-02-28T10:29:23.712Z,15.40
2023-02-28T10:31:53.284Z,16.40
2023-02-28T10:34:22.324Z,16.52
2023-02-28T10:36:50.775Z,17.05
2023-02-28T10:39:38.608Z,16.42
2023-02-28T10:42:05.597Z,16.88
2023-02-28T10:44:32.323Z,17.10
2023-02-28T10:47:01.439Z,16.63
2023-02-28T10:49:29.788Z,17.45
2023-02-28T10:51:59.787Z,17.67
2023-02-28T10:54:36.400Z,18.67
2023-02-28T10:57:23.194Z,21.02
2023-02-28T10:59:53.730Z,20.38
2023-02-28T11:07:37.458Z,21.13
2023-02-28T11:10:14.620Z,19.42
2023-02-28T11:12:51.898Z,20.60
2023-02-28T11:15:29.598Z,21.48
2023-02-28T11:18:17.579Z,23.13
2023-02-28T11:20:51.324Z,17.85
2023-02-28T11:23:21.170Z,23.20
2023-02-28T11:25:50.480Z,21.52
2023-02-28T11:28:27.815Z,19.00
2023-02-28T11:31:07.052Z,23.08
2023-02-28T11:33:53.357Z,19.48
2023-02-28T11:36:30.011Z,20.70
2023-02-28T11:39:02.750Z,20.13
2023-02-28T11:41:40.845Z,21.88
2023-02-28T11:44:19.924Z,23.45
2023-02-28T11:46:54.757Z,19.60
2023-02-28T11:49:25.194Z,20.20
2023-02-28T11:52:15.329Z,19.27
2023-02-28T11:54:51.147Z,18.65
2023-02-28T11:57:45.322Z,20.83
2023-02-28T12:00:33.565Z,20.35
2023-02-28T12:03:30.328Z,18.58
2023-02-28T12:06:20.492Z,19.20
2023-02-28T12:08:47.135Z,21.77
2023-02-28T12:11:22.535Z,21.52
2023-02-28T12:14:34.131Z,22.02
2023-02-28T12:20:04.124Z,17.60
2023-02-28T12:22:33.897Z,18.48
2023-02-28T12:25:24.248Z,18.95
2023-02-28T12:27:51.455Z,17.55
2023-02-28T12:30:29.239Z,17.17
2023-02-28T12:33:04.267Z,18.50
2023-02-28T12:35:56.871Z,20.40
2023-02-28T12:38:28.381Z,17.55
2023-02-28T12:41:05.361Z,16.75
2023-02-28T12:43:35.511Z,19.05
2023-02-28T12:46:39.567Z,18.45
2023-02-28T12:49:12.461Z,18.23
2023-02-28T12:51:39.304Z,18.48
2023-02-28T12:54:31.892Z,17.45
2023-02-28T12:57:19.814Z,17.17
2023-02-28T12:59:55.358Z,15.30
2023-02-28T13:02:40.390Z,17.67
2023-02-28T13:05:10.142Z,15.57
2023-02-28T13:07:55.696Z,17.15
2023-02-28T13:10:27.967Z,17.48
2023-02-28T13:12:55.873Z,14.20
2023-02-28T13:15:29.053Z,15.57
2023-02-28T13:17:57.721Z,16.73
2023-02-28T13:20:25.264Z,16.48
2023-02-28T13:22:53.805Z,14.32
2023-02-28T13:25:23.554Z,15.18
2023-02-28T13:27:57.987Z,15.50
2023-02-28T13:30:56.891Z,15.05
2023-02-28T13:33:29.981Z,16.23
2023-02-28T13:36:15.480Z,16.42
2023-02-28T13:39:05.168Z,16.60
2023-02-28T13:41:32.148Z,16.73
2023-02-28T13:44:07.023Z,15.80
2023-02-28T13:46:37.818Z,13.98
2023-02-28T13:49:26.541Z,15.00
2023-02-28T13:52:17.420Z,13.32
2023-02-28T13:54:59.494Z,15.73
2023-02-28T13:58:06.441Z,14.95
2023-02-28T14:00:42.512Z,16.27
2023-02-28T14:03:25.769Z,16.20
2023-02-28T14:06:14.841Z,14.45
2023-02-28T14:08:53.589Z,14.98
2023-02-28T14:11:33.518Z,12.73
2023-02-28T14:14:00.663Z,14.25
2023-02-28T14:16:31.082Z,14.23
2023-02-28T14:19:11.031Z,15.02
2023-02-28T14:21:39.442Z,14.35
2023-02-28T14:24:12.351Z,14.20
2023-02-28T14:27:03.831Z,14.32
2023-02-28T14:29:48.685Z,13.88
2023-02-28T14:32:23.057Z,13.80
2023-02-28T14:35:27.068Z,13.00
2023-02-28T14:37:54.062Z,13.82
2023-02-28T14:40:36.125Z,13.40
2023-02-28T14:43:07.007Z,13.85
2023-02-28T14:45:38.541Z,11.57
2023-02-28T14:48:05.739Z,12.43
2023-02-28T14:50:36.700Z,12.25
2023-02-28T14:53:05.371Z,11.80
2023-02-28T14:55:33.607Z,14.07
2023-02-28T14:58:04.337Z,13.68
2023-02-28T15:00:32.628Z,13.60
2023-02-28T15:03:01.503Z,14.23
2023-02-28T15:05:32.378Z,11.70
2023-02-28T15:08:12.828Z,11.52
2023-02-28T15:10:41.206Z,12.03
2023-02-28T15:13:09.259Z,10.68
2023-02-28T15:16:14.150Z,12.73
2023-02-28T15:18:53.634Z,11.50
2023-02-28T15:21:24.416Z,12.00
2023-02-28T15:23:54.604Z,11.68
2023-02-28T15:26:22.911Z,12.77
2023-02-28T15:28:52.612Z,11.07
2023-02-28T15:31:36.266Z,13.60
2023-02-28T15:34:06.942Z,12.82
2023-02-28T15:36:38.153Z,11.50
2023-02-28T15:39:22.484Z,11.68
2023-02-28T15:41:49.371Z,11.48
2023-02-28T15:44:36.291Z,12.02
2023-02-28T15:47:08.496Z,13.88
2023-02-28T15:50:00.685Z,11.07
2023-02-28T15:52:41.856Z,11.48
2023-02-28T15:57:43.362Z,10.63
2023-02-28T16:00:14.948Z,11.90
2023-02-28T16:02:41.886Z,13.02
2023-02-28T16:05:08.566Z,11.32
2023-02-28T16:07:39.229Z,12.93
2023-02-28T16:10:06.862Z,11.38
2023-02-28T16:12:34.962Z,11.50
2023-02-28T16:15:24.021Z,11.25
2023-02-28T16:17:50.764Z,11.93
2023-02-28T16:20:19.564Z,11.23
2023-02-28T16:22:46.904Z,12.85
2023-02-28T16:25:15.036Z,11.25
2023-02-28T16:27:41.978Z,13.60
2023-02-28T16:30:09.409Z,11.18
2023-02-28T16:32:37.005Z,13.30
2023-02-28T16:35:03.892Z,11.48
2023-02-28T16:37:30.843Z,9.85
2023-02-28T16:39:57.559Z,10.65
2023-02-28T16:42:26.336Z,12.30
2023-02-28T16:44:56.362Z,10.55
2023-02-28T16:47:27.717Z,10.63
2023-02-28T16:49:54.582Z,9.93
2023-02-28T16:52:26.416Z,9.82
2023-02-28T16:54:55.478Z,11.00
2023-02-28T16:57:22.962Z,11.15
2023-02-28T16:59:51.910Z,11.05
2023-02-28T17:02:20.457Z,10.07
2023-02-28T17:04:49.706Z,9.05
2023-02-28T17:07:19.676Z,9.23
2023-02-28T17:09:51.585Z,11.15
2023-02-28T17:12:18.603Z,9.20
2023-02-28T17:14:45.484Z,10.48
2023-02-28T17:17:30.341Z,9.25
2023-02-28T17:19:57.267Z,8.95
2023-02-28T17:22:24.135Z,8.57
2023-02-28T17:24:50.935Z,8.80
2023-02-28T17:27:17.563Z,9.07
2023-02-28T17:29:44.275Z,8.82
2023-02-28T17:32:17.863Z,8.63
2023-02-28T17:34:46.854Z,8.63
2023-02-28T17:37:13.880Z,10.02
2023-02-28T17:39:42.988Z,8.88
2023-02-28T17:42:12.129Z,8.95
2023-02-28T17:44:41.197Z,8.98
2023-02-28T17:47:07.958Z,9.25
2023-02-28T17:49:34.687Z,9.00
2023-02-28T17:52:01.489Z,9.23
2023-02-28T17:54:30.779Z,9.27
2023-02-28T17:56:57.602Z,8.40
2023-02-28T17:59:24.290Z,10.73
2023-02-28T18:01:51.783Z,8.27
2023-02-28T18:04:18.523Z,7.95
2023-02-28T18:06:48.388Z,8.48
2023-02-28T18:09:16.117Z,9.38
2023-02-28T18:11:50.088Z,7.38
2023-02-28T18:14:17.140Z,7.03
2023-02-28T18:16:46.217Z,8.82
2023-02-28T18:19:17.553Z,6.30
2023-02-28T18:21:45.224Z,8.05
2023-02-28T18:24:12.454Z,5.85
2023-02-28T18:26:39.523Z,8.43
2023-02-28T18:29:06.779Z,12.40
2023-02-28T18:31:36.316Z,10.65
2023-02-28T18:34:03.185Z,7.57
2023-02-28T18:36:34.529Z,11.50
2023-02-28T18:39:01.551Z,9.73
2023-02-28T18:41:30.558Z,7.50
2023-02-28T18:43:57.330Z,7.90
2023-02-28T18:46:24.324Z,12.02
2023-02-28T18:48:51.196Z,9.75
2023-02-28T18:51:20.072Z,10.48
2023-02-28T18:53:46.937Z,10.63
2023-02-28T18:56:15.198Z,10.43
2023-02-28T18:58:45.059Z,10.43
2023-02-28T19:01:26.954Z,12.93
2023-02-28T19:03:53.729Z,14.20
2023-02-28T19:06:20.556Z,13.43
2023-02-28T19:08:49.278Z,12.13
2023-02-28T19:11:17.608Z,12.45
2023-02-28T19:13:44.483Z,12.60
2023-02-28T19:16:11.645Z,15.48
2023-02-28T19:18:38.836Z,13.98
2023-02-28T19:21:11.266Z,12.88
2023-02-28T19:23:38.486Z,12.73
2023-02-28T19:26:16.164Z,16.02
2023-02-28T19:28:45.182Z,16.30
2023-02-28T19:31:16.308Z,14.70
2023-02-28T19:36:12.645Z,14.10
2023-02-28T19:38:40.037Z,15.27
2023-02-28T19:41:09.269Z,16.05
2023-02-28T19:43:38.418Z,15.25
2023-02-28T19:46:05.680Z,16.85
2023-02-28T19:48:35.370Z,14.35
2023-02-28T19:51:03.653Z,16.40
2023-02-28T19:53:30.994Z,15.63
2023-02-28T19:56:00.605Z,14.18
2023-02-28T19:58:27.620Z,14.75
2023-02-28T20:00:54.573Z,16.45
2023-02-28T20:03:23.911Z,19.15
2023-02-28T20:06:03.066Z,15.45
2023-02-28T20:08:29.884Z,15.85
2023-02-28T20:11:04.067Z,15.05
2023-02-28T20:13:33.469Z,13.00
2023-02-28T20:16:06.196Z,15.68
2023-02-28T20:18:33.743Z,15.45
2023-02-28T20:21:01.968Z,13.13
2023-02-28T20:23:29.280Z,12.95
2023-02-28T20:25:59.930Z,16.88
2023-02-28T20:28:26.776Z,14.23
2023-02-28T20:30:53.627Z,13.43
2023-02-28T20:33:20.596Z,14.73
2023-02-28T20:35:49.291Z,15.25
2023-02-28T20:38:16.054Z,15.10
2023-02-28T20:40:43.015Z,13.10
2023-02-28T20:43:09.869Z,14.40
2023-02-28T20:45:37.085Z,13.20
2023-02-28T20:48:04.066Z,14.73
2023-02-28T20:50:31.703Z,13.70
2023-02-28T20:52:58.428Z,14.43
2023-02-28T20:55:25.309Z,10.93
2023-02-28T20:57:54.195Z,13.10
2023-02-28T21:00:22.470Z,12.93
2023-02-28T21:02:49.178Z,12.23
2023-02-28T21:05:18.047Z,12.82
2023-02-28T21:07:44.794Z,11.70
2023-02-28T21:10:12.177Z,13.48
2023-02-28T21:12:41.109Z,12.15
2023-02-28T21:15:08.612Z,13.55
2023-02-28T21:17:35.497Z,15.73
2023-02-28T21:20:02.228Z,14.32
2023-02-28T21:22:29.032Z,15.30
2023-02-28T21:24:55.863Z,13.93
2023-02-28T21:27:24.680Z,14.43
2023-02-28T21:29:53.882Z,14.63
2023-02-28T21:32:22.915Z,15.88
2023-02-28T21:34:52.541Z,14.73
2023-02-28T21:37:21.934Z,14.20
2023-02-28T21:39:48.668Z,14.50
2023-02-28T21:42:18.490Z,14.88
2023-02-28T21:44:45.302Z,15.60
2023-02-28T21:47:12.322Z,17.73
2023-02-28T21:49:41.362Z,15.65
2023-02-28T21:52:10.119Z,15.52
2023-02-28T21:54:36.948Z,16.85
2023-02-28T21:57:03.761Z,15.25
2023-02-28T21:59:30.721Z,15.73
2023-02-28T22:01:59.572Z,16.95
2023-02-28T22:04:26.242Z,17.95
2023-02-28T22:06:54.438Z,17.15
2023-02-28T22:09:21.293Z,17.02
2023-02-28T22:11:48.048Z,16.60
2023-02-28T22:14:14.799Z,17.40
2023-02-28T22:16:51.124Z,18.40
2023-02-28T22:19:19.729Z,17.20
2023-02-28T22:21:47.551Z,17.15
2023-02-28T22:24:20.194Z,17.95
2023-02-28T22:26:46.931Z,17.67
2023-02-28T22:29:15.718Z,18.30
2023-02-28T22:31:42.541Z,18.25
2023-02-28T22:34:10.718Z,19.20
2023-02-28T22:36:40.569Z,21.17
2023-02-28T22:39:07.438Z,10.32
2023-02-28T22:41:34.300Z,10.73
2023-02-28T22:44:01.992Z,9.95
2023-02-28T22:46:29.981Z,19.92
2023-02-28T22:49:01.352Z,16.20
2023-02-28T22:53:55.206Z,13.93
2023-02-28T22:56:23.023Z,14.80
2023-02-28T22:58:54.044Z,15.77
2023-02-28T23:01:24.547Z,15.73
2023-02-28T23:03:51.487Z,14.63
2023-02-28T23:06:24.878Z,15.18
2023-02-28T23:08:57.115Z,14.40
2023-02-28T23:11:29.185Z,15.73
2023-02-28T23:13:58.631Z,11.70
2023-02-28T23:16:26.414Z,13.68
2023-02-28T23:18:53.223Z,12.73
2023-02-28T23:21:19.903Z,13.52
2023-02-28T23:23:48.856Z,12.75
2023-02-28T23:26:15.600Z,11.70
2023-02-28T23:28:42.405Z,11.73
2023-02-28T23:31:11.313Z,14.27
2023-02-28T23:33:40.397Z,11.38
2023-02-28T23:36:09.884Z,11.43
2023-02-28T23:38:36.881Z,12.30
2023-02-28T23:41:09.410Z,10.93
2023-02-28T23:43:36.457Z,11.13
2023-02-28T23:46:03.828Z,12.02
2023-02-28T23:48:32.930Z,11.48
2023-02-28T23:51:08.469Z,11.65
2023-02-28T23:53:36.010Z,10.38
2023-02-28T23:56:03.066Z,11.20
2023-02-28T23:58:30.044Z,10.55
